createdAt,value
2018-09-13T00:00:38.300Z,85.16
2018-09-13T00:03:06.931Z,85.43
2018-09-13T00:05:35.641Z,84.45
2018-09-13T00:08:04.366Z,84.85
2018-09-13T00:10:33.079Z,85.43
2018-09-13T00:13:01.694Z,85.03
2018-09-13T00:15:30.330Z,85.48
2018-09-13T00:17:58.982Z,85.85
2018-09-13T00:20:27.682Z,85.87
2018-09-13T00:22:56.322Z,85.90
2018-09-13T00:25:24.996Z,86.92
2018-09-13T00:27:53.644Z,86.56
2018-09-13T00:30:22.284Z,86.63
2018-09-13T00:32:50.909Z,86.70
2018-09-13T00:35:19.656Z,86.46
2018-09-13T00:37:48.340Z,86.88
2018-09-13T00:40:17.001Z,87.19
2018-09-13T00:42:45.777Z,87.37
2018-09-13T00:45:14.378Z,88.02
2018-09-13T00:47:44.528Z,87.80
2018-09-13T00:50:14.437Z,87.36
2018-09-13T00:52:43.040Z,88.04
2018-09-13T00:55:11.702Z,87.98
2018-09-13T00:57:40.333Z,87.68
2018-09-13T01:00:09.132Z,87.90
2018-09-13T01:02:38.780Z,87.80
2018-09-13T01:05:07.423Z,88.43
2018-09-13T01:07:36.106Z,87.62
2018-09-13T01:10:04.966Z,87.45
2018-09-13T01:12:33.694Z,88.14
2018-09-13T01:15:02.529Z,87.72
2018-09-13T01:17:31.147Z,87.60
2018-09-13T01:20:00.016Z,87.75
2018-09-13T01:22:28.685Z,86.83
2018-09-13T01:24:57.612Z,87.86
2018-09-13T01:27:27.944Z,88.19
2018-09-13T01:29:57.414Z,88.94
2018-09-13T01:32:26.085Z,88.53
2018-09-13T01:34:54.842Z,88.56
2018-09-13T01:37:23.466Z,88.32
2018-09-13T01:39:52.623Z,88.36
2018-09-13T01:42:21.262Z,89.49
2018-09-13T01:44:50.088Z,89.69
2018-09-13T01:47:18.747Z,89.09
2018-09-13T01:49:47.347Z,89.20
2018-09-13T01:52:16.194Z,89.29
2018-09-13T01:54:45.080Z,89.40
2018-09-13T01:57:14.067Z,89.83
2018-09-13T01:59:42.875Z,89.16
2018-09-13T02:02:11.538Z,88.99
2018-09-13T02:04:40.208Z,89.24
2018-09-13T02:07:08.892Z,89.35
2018-09-13T02:09:37.482Z,88.49
2018-09-13T02:12:06.553Z,88.48
2018-09-13T02:14:35.252Z,87.99
2018-09-13T02:17:04.097Z,88.22
2018-09-13T02:19:32.729Z,88.11
2018-09-13T02:22:01.361Z,87.55
2018-09-13T02:24:30.362Z,88.02
2018-09-13T02:26:59.307Z,88.24
2018-09-13T02:29:28.145Z,87.67
2018-09-13T02:31:56.753Z,86.53
2018-09-13T02:34:25.479Z,87.03
2018-09-13T02:36:54.106Z,87.42
2018-09-13T02:39:22.793Z,87.49
2018-09-13T02:41:51.641Z,87.05
2018-09-13T02:44:20.909Z,87.69
2018-09-13T02:46:50.051Z,87.42
2018-09-13T02:49:18.811Z,86.69
2018-09-13T02:51:47.595Z,87.24
2018-09-13T02:54:16.292Z,87.15
2018-09-13T02:56:44.891Z,87.07
2018-09-13T02:59:13.611Z,86.73
2018-09-13T03:01:42.205Z,86.93
2018-09-13T03:04:10.785Z,87.17
2018-09-13T03:06:39.533Z,87.68
2018-09-13T03:09:11.736Z,86.71
2018-09-13T03:11:40.849Z,87.21
2018-09-13T03:14:09.988Z,86.85
2018-09-13T03:16:39.124Z,87.74
2018-09-13T03:19:07.980Z,87.84
2018-09-13T03:21:38.765Z,87.10
2018-09-13T03:24:07.406Z,87.78
2018-09-13T03:26:36.286Z,87.59
2018-09-13T03:29:05.204Z,87.50
2018-09-13T03:31:33.825Z,87.96
2018-09-13T03:34:02.620Z,87.88
2018-09-13T03:36:31.230Z,87.13
2018-09-13T03:38:59.876Z,88.08
2018-09-13T03:41:28.568Z,88.02
2018-09-13T03:43:57.151Z,88.29
2018-09-13T03:46:25.780Z,88.99
2018-09-13T03:48:54.371Z,89.39
2018-09-13T03:51:23.011Z,88.95
2018-09-13T03:53:51.623Z,89.42
2018-09-13T03:56:20.284Z,90.10
2018-09-13T03:58:49.010Z,89.78
2018-09-13T04:01:17.673Z,90.25
2018-09-13T04:03:46.660Z,90.56
2018-09-13T04:06:15.343Z,90.11
2018-09-13T04:08:44.054Z,90.59
2018-09-13T04:11:12.683Z,91.34
2018-09-13T04:13:42.254Z,90.49
2018-09-13T04:16:10.839Z,91.27
2018-09-13T04:18:39.534Z,90.80
2018-09-13T04:21:08.107Z,91.66
2018-09-13T04:26:16.437Z,92.16
2018-09-13T04:28:44.956Z,91.33
2018-09-13T04:31:13.469Z,91.08
2018-09-13T04:33:41.992Z,91.61
2018-09-13T04:36:10.639Z,91.72
2018-09-13T04:38:39.138Z,91.79
2018-09-13T04:41:08.148Z,92.76
2018-09-13T04:43:36.718Z,92.44
2018-09-13T04:46:05.426Z,92.83
2018-09-13T04:48:34.521Z,93.02
2018-09-13T04:51:03.365Z,93.35
2018-09-13T04:53:32.814Z,92.46
2018-09-13T04:56:01.571Z,92.12
2018-09-13T04:58:30.257Z,93.02
2018-09-13T05:00:58.864Z,92.40
2018-09-13T05:03:27.510Z,93.48
2018-09-13T05:05:56.074Z,93.66
2018-09-13T05:08:24.673Z,93.28
2018-09-13T05:10:53.342Z,93.09
2018-09-13T05:13:21.990Z,93.49
2018-09-13T05:15:50.519Z,93.62
2018-09-13T05:18:19.091Z,93.64
2018-09-13T05:20:47.648Z,93.30
2018-09-13T05:23:16.153Z,92.74
2018-09-13T05:25:44.885Z,94.07
2018-09-13T05:28:13.703Z,93.65
2018-09-13T05:30:42.348Z,94.25
2018-09-13T05:33:10.924Z,93.52
2018-09-13T05:35:39.404Z,93.88
2018-09-13T05:38:07.885Z,93.25
2018-09-13T05:40:36.429Z,93.13
2018-09-13T05:43:04.995Z,93.77
2018-09-13T05:45:33.589Z,93.61
2018-09-13T05:48:02.393Z,93.51
2018-09-13T05:50:30.897Z,93.62
2018-09-13T05:52:59.417Z,94.21
2018-09-13T05:55:27.885Z,93.75
2018-09-13T05:57:56.435Z,93.45
2018-09-13T06:00:25.253Z,93.55
2018-09-13T06:02:53.787Z,93.89
2018-09-13T06:05:22.269Z,94.00
2018-09-13T06:07:50.997Z,93.71
2018-09-13T06:10:19.577Z,93.02
2018-09-13T06:12:48.490Z,92.89
2018-09-13T06:15:17.188Z,92.84
2018-09-13T06:17:45.894Z,92.00
2018-09-13T06:20:14.638Z,91.62
2018-09-13T06:22:43.276Z,91.55
2018-09-13T06:25:12.605Z,91.38
2018-09-13T06:27:41.102Z,91.02
2018-09-13T06:30:09.887Z,90.90
2018-09-13T06:32:38.395Z,91.09
2018-09-13T06:35:07.023Z,91.49
2018-09-13T06:37:35.595Z,90.96
2018-09-13T06:40:04.430Z,90.19
2018-09-13T06:42:33.391Z,89.90
2018-09-13T06:45:01.902Z,89.52
2018-09-13T06:47:30.426Z,88.24
2018-09-13T06:49:58.917Z,88.53
2018-09-13T06:52:27.508Z,88.63
2018-09-13T06:54:56.048Z,88.22
2018-09-13T06:57:24.789Z,87.81
2018-09-13T06:59:53.370Z,87.02
2018-09-13T07:02:21.948Z,87.02
2018-09-13T07:04:50.500Z,86.39
2018-09-13T07:07:19.350Z,86.22
2018-09-13T07:09:47.852Z,85.58
2018-09-13T07:12:16.525Z,85.23
2018-09-13T07:14:45.054Z,85.29
2018-09-13T07:17:13.611Z,84.72
2018-09-13T07:19:42.189Z,83.76
2018-09-13T07:22:10.883Z,83.94
2018-09-13T07:24:39.389Z,83.26
2018-09-13T07:27:07.927Z,82.97
2018-09-13T07:29:36.670Z,83.14
2018-09-13T07:32:05.356Z,82.85
2018-09-13T07:34:33.873Z,82.38
2018-09-13T07:37:02.438Z,81.76
2018-09-13T07:39:31.898Z,81.44
2018-09-13T07:42:00.426Z,81.17
2018-09-13T07:44:28.940Z,80.99
2018-09-13T07:46:57.552Z,79.31
2018-09-13T07:49:26.321Z,80.02
2018-09-13T07:51:54.888Z,79.02
2018-09-13T07:54:24.119Z,77.66
2018-09-13T07:56:52.642Z,78.94
2018-09-13T07:59:21.293Z,77.63
2018-09-13T08:01:49.860Z,77.13
2018-09-13T08:04:18.547Z,77.58
2018-09-13T08:06:47.104Z,76.63
2018-09-13T08:09:15.680Z,76.08
2018-09-13T08:11:44.302Z,76.58
2018-09-13T08:14:12.808Z,76.02
2018-09-13T08:16:41.336Z,75.35
2018-09-13T08:19:10.025Z,75.28
2018-09-13T08:21:38.692Z,75.52
2018-09-13T08:24:07.203Z,74.05
2018-09-13T08:26:35.799Z,73.28
2018-09-13T08:29:04.341Z,74.01
2018-09-13T08:31:32.865Z,71.91
2018-09-13T08:34:01.488Z,72.70
2018-09-13T08:36:30.035Z,72.33
2018-09-13T08:38:58.737Z,72.70
2018-09-13T08:41:27.261Z,73.56
2018-09-13T08:43:55.840Z,71.68
2018-09-13T08:46:24.400Z,71.64
2018-09-13T08:48:52.951Z,72.91
2018-09-13T08:51:21.975Z,72.97
2018-09-13T08:53:50.488Z,70.78
2018-09-13T08:56:19.024Z,70.69
2018-09-13T08:58:47.553Z,70.34
2018-09-13T09:01:17.829Z,71.50
2018-09-13T09:03:46.354Z,71.62
2018-09-13T09:06:15.068Z,69.89
2018-09-13T09:08:43.580Z,70.73
2018-09-13T09:11:12.201Z,70.54
2018-09-13T09:13:41.051Z,68.30
2018-09-13T09:16:09.588Z,68.56
2018-09-13T09:18:38.077Z,68.73
2018-09-13T09:21:06.724Z,68.64
2018-09-13T09:23:35.217Z,66.52
2018-09-13T09:26:03.721Z,66.41
2018-09-13T09:28:32.304Z,65.12
2018-09-13T09:31:00.921Z,64.99
2018-09-13T09:33:29.796Z,65.24
2018-09-13T09:35:58.638Z,62.97
2018-09-13T09:38:27.132Z,61.97
2018-09-13T09:40:55.649Z,63.67
2018-09-13T09:43:24.181Z,63.32
2018-09-13T09:45:52.703Z,62.68
2018-09-13T09:48:21.278Z,63.02
2018-09-13T09:50:49.892Z,63.27
2018-09-13T09:53:18.453Z,61.77
2018-09-13T09:55:48.292Z,61.46
2018-09-13T09:58:16.809Z,62.49
2018-09-13T10:01:50.397Z,64.30
2018-09-13T10:04:18.978Z,64.57
2018-09-13T10:06:47.586Z,64.05
2018-09-13T10:09:16.091Z,62.68
2018-09-13T10:11:45.037Z,63.53
2018-09-13T10:14:13.598Z,60.64
2018-09-13T10:16:47.341Z,60.01
2018-09-13T10:19:21.135Z,57.32
2018-09-13T10:21:54.961Z,57.70
2018-09-13T10:24:28.833Z,55.90
2018-09-13T10:27:02.697Z,54.94
2018-09-13T10:29:36.411Z,52.28
2018-09-13T10:33:12.003Z,53.53
2018-09-13T10:35:45.777Z,50.63
2018-09-13T10:38:19.809Z,53.89
2018-09-13T10:40:53.754Z,52.33
2018-09-13T10:43:27.626Z,50.78
2018-09-13T10:46:01.566Z,49.77
2018-09-13T10:48:31.648Z,49.65
2018-09-13T10:51:05.254Z,45.98
2018-09-13T10:53:38.930Z,46.75
2018-09-13T10:56:08.151Z,49.13
2018-09-13T10:58:36.853Z,49.27
2018-09-13T11:01:05.389Z,47.74
2018-09-13T11:03:34.000Z,49.30
2018-09-13T11:06:02.560Z,47.80
2018-09-13T11:08:31.167Z,48.45
2018-09-13T11:10:59.749Z,48.74
2018-09-13T11:13:34.017Z,48.74
2018-09-13T11:16:02.777Z,47.64
2018-09-13T11:18:31.640Z,48.92
2018-09-13T11:21:00.117Z,47.28
2018-09-13T11:23:28.787Z,47.88
2018-09-13T11:25:57.362Z,49.32
2018-09-13T11:28:25.921Z,46.87
2018-09-13T11:30:59.818Z,47.32
2018-09-13T11:33:28.280Z,46.88
2018-09-13T11:35:56.989Z,47.76
2018-09-13T11:38:25.565Z,44.68
2018-09-13T11:40:54.444Z,44.13
2018-09-13T11:43:22.694Z,45.79
2018-09-13T11:45:51.332Z,42.65
2018-09-13T11:48:19.832Z,44.25
2018-09-13T11:50:48.452Z,45.73
2018-09-13T11:53:16.930Z,46.59
2018-09-13T11:55:46.014Z,46.86
2018-09-13T11:58:15.910Z,46.71
2018-09-13T12:00:44.633Z,46.90
2018-09-13T12:03:14.642Z,47.51
2018-09-13T12:05:43.172Z,45.12
2018-09-13T12:08:11.995Z,45.97
2018-09-13T12:10:40.505Z,45.79
2018-09-13T12:13:09.043Z,46.68
2018-09-13T12:15:37.598Z,44.13
2018-09-13T12:18:06.766Z,42.14
2018-09-13T12:20:35.328Z,42.01
2018-09-13T12:23:03.965Z,39.82
2018-09-13T12:25:32.654Z,37.63
2018-09-13T12:28:08.124Z,35.65
2018-09-13T12:30:37.183Z,33.54
2018-09-13T12:33:05.713Z,33.40
2018-09-13T12:35:34.340Z,38.27
2018-09-13T12:38:02.876Z,38.57
2018-09-13T12:40:31.355Z,34.14
2018-09-13T12:42:59.872Z,36.41
2018-09-13T12:45:28.456Z,38.18
2018-09-13T12:47:57.153Z,38.13
2018-09-13T12:50:25.925Z,40.41
2018-09-13T12:52:54.481Z,39.99
2018-09-13T12:55:27.143Z,40.13
2018-09-13T12:57:55.682Z,37.60
2018-09-13T13:00:24.230Z,39.47
2018-09-13T13:02:52.695Z,37.20
2018-09-13T13:05:21.216Z,41.71
2018-09-13T13:07:49.797Z,42.05
2018-09-13T13:10:18.304Z,43.13
2018-09-13T13:12:47.228Z,41.54
2018-09-13T13:15:15.753Z,41.39
2018-09-13T13:17:44.334Z,40.21
2018-09-13T13:20:12.845Z,37.62
2018-09-13T13:22:41.343Z,34.99
2018-09-13T13:25:09.914Z,33.21
2018-09-13T13:27:38.545Z,33.86
2018-09-13T13:30:07.303Z,34.82
2018-09-13T13:32:35.833Z,34.51
2018-09-13T13:35:04.399Z,34.70
2018-09-13T13:37:32.921Z,35.36
2018-09-13T13:40:01.612Z,37.19
2018-09-13T13:42:30.207Z,39.06
2018-09-13T13:44:58.715Z,40.28
2018-09-13T13:47:27.255Z,41.50
2018-09-13T13:49:55.763Z,40.91
2018-09-13T13:52:24.223Z,41.21
2018-09-13T13:54:52.761Z,40.64
2018-09-13T13:57:21.599Z,44.12
2018-09-13T13:59:50.222Z,44.08
2018-09-13T14:02:18.784Z,39.94
2018-09-13T14:04:47.333Z,40.19
2018-09-13T14:07:15.999Z,35.97
2018-09-13T14:09:44.518Z,34.03
2018-09-13T14:12:13.138Z,33.66
2018-09-13T14:14:41.668Z,34.57
2018-09-13T14:17:10.190Z,33.78
2018-09-13T14:19:38.764Z,30.56
2018-09-13T14:22:07.306Z,30.94
2018-09-13T14:24:35.870Z,31.08
2018-09-13T14:27:04.396Z,29.74
2018-09-13T14:29:32.951Z,34.58
2018-09-13T14:32:01.465Z,35.66
2018-09-13T14:34:30.000Z,36.47
2018-09-13T14:36:58.506Z,36.44
2018-09-13T14:39:27.114Z,36.62
2018-09-13T14:41:55.634Z,38.65
2018-09-13T14:44:24.177Z,37.12
2018-09-13T14:46:52.839Z,36.25
2018-09-13T14:49:21.437Z,34.10
2018-09-13T14:51:49.971Z,33.99
2018-09-13T14:54:18.650Z,31.31
2018-09-13T14:56:47.189Z,32.98
2018-09-13T14:59:15.784Z,31.22
2018-09-13T15:01:44.545Z,32.31
2018-09-13T15:04:13.087Z,33.12
2018-09-13T15:06:41.653Z,35.00
2018-09-13T15:09:12.120Z,37.77
2018-09-13T15:11:40.790Z,37.43
2018-09-13T15:14:09.339Z,35.62
2018-09-13T15:16:37.885Z,33.92
2018-09-13T15:19:06.432Z,32.14
2018-09-13T15:21:35.120Z,31.08
2018-09-13T15:24:03.847Z,29.49
2018-09-13T15:26:32.411Z,32.63
2018-09-13T15:29:00.992Z,30.54
2018-09-13T15:31:29.701Z,28.80
2018-09-13T15:33:58.190Z,35.09
2018-09-13T15:36:26.816Z,32.54
2018-09-13T15:38:55.422Z,31.00
2018-09-13T15:41:24.025Z,31.09
2018-09-13T15:43:52.984Z,29.18
2018-09-13T15:46:21.917Z,31.66
2018-09-13T15:48:50.411Z,34.61
2018-09-13T15:51:19.181Z,34.61
2018-09-13T15:53:47.775Z,33.40
2018-09-13T15:56:16.348Z,34.50
2018-09-13T15:58:44.905Z,31.70
2018-09-13T16:01:13.434Z,32.14
2018-09-13T16:03:41.974Z,33.13
2018-09-13T16:06:10.542Z,33.53
2018-09-13T16:08:39.115Z,32.73
2018-09-13T16:11:07.866Z,33.36
2018-09-13T16:13:36.545Z,32.30
2018-09-13T16:16:05.101Z,34.64
2018-09-13T16:18:33.875Z,34.46
2018-09-13T16:21:02.942Z,34.93
2018-09-13T16:23:31.489Z,34.89
2018-09-13T16:26:00.080Z,34.01
2018-09-13T16:28:28.537Z,35.40
2018-09-13T16:30:57.125Z,35.93
2018-09-13T16:33:25.630Z,35.17
2018-09-13T16:35:55.207Z,34.64
2018-09-13T16:38:31.869Z,33.50
2018-09-13T16:41:06.256Z,35.28
2018-09-13T16:43:40.129Z,36.21
2018-09-13T16:46:09.935Z,35.08
2018-09-13T16:48:43.225Z,33.45
2018-09-13T16:51:12.422Z,35.66
2018-09-13T16:53:40.995Z,38.17
2018-09-13T16:56:09.566Z,39.49
2018-09-13T16:58:38.097Z,39.92
2018-09-13T17:01:06.731Z,39.82
2018-09-13T17:03:35.239Z,41.88
2018-09-13T17:06:03.764Z,41.69
2018-09-13T17:08:32.264Z,42.24
2018-09-13T17:11:00.765Z,43.79
2018-09-13T17:13:29.323Z,43.86
2018-09-13T17:15:57.879Z,42.97
2018-09-13T17:18:26.481Z,44.03
2018-09-13T17:20:55.032Z,44.50
2018-09-13T17:23:23.614Z,44.21
2018-09-13T17:25:52.133Z,44.69
2018-09-13T17:28:20.812Z,44.61
2018-09-13T17:30:49.512Z,44.98
2018-09-13T17:33:18.230Z,46.10
2018-09-13T17:35:46.787Z,46.34
2018-09-13T17:38:15.395Z,47.08
2018-09-13T17:40:43.910Z,47.96
2018-09-13T17:43:12.440Z,47.54
2018-09-13T17:45:40.959Z,48.07
2018-09-13T17:48:09.555Z,49.03
2018-09-13T17:50:38.042Z,49.37
2018-09-13T17:53:06.633Z,49.78
2018-09-13T17:55:35.650Z,50.31
2018-09-13T17:58:04.805Z,50.86
2018-09-13T18:00:33.322Z,51.24
2018-09-13T18:03:01.922Z,51.20
2018-09-13T18:05:30.577Z,53.03
2018-09-13T18:07:59.300Z,52.47
2018-09-13T18:10:28.453Z,53.10
2018-09-13T18:12:57.186Z,53.48
2018-09-13T18:15:25.699Z,54.42
2018-09-13T18:17:54.208Z,54.62
2018-09-13T18:20:22.743Z,54.70
2018-09-13T18:22:51.701Z,55.50
2018-09-13T18:25:20.184Z,54.03
2018-09-13T18:27:48.720Z,55.33
2018-09-13T18:30:17.347Z,55.42
2018-09-13T18:32:46.082Z,55.36
2018-09-13T18:35:14.638Z,55.19
2018-09-13T18:37:43.325Z,55.89
2018-09-13T18:40:11.853Z,55.67
2018-09-13T18:42:40.442Z,56.06
2018-09-13T18:45:09.030Z,56.73
2018-09-13T18:47:37.555Z,57.34
2018-09-13T18:50:06.152Z,57.53
2018-09-13T18:52:35.492Z,57.73
2018-09-13T18:55:04.487Z,58.97
2018-09-13T18:57:33.156Z,59.19
2018-09-13T19:00:01.759Z,59.56
2018-09-13T19:02:30.405Z,60.11
2018-09-13T19:05:00.107Z,60.34
2018-09-13T19:07:28.752Z,60.50
2018-09-13T19:09:57.281Z,61.30
2018-09-13T19:12:27.081Z,61.78
2018-09-13T19:14:55.817Z,61.10
2018-09-13T19:17:24.580Z,61.75
2018-09-13T19:19:53.128Z,62.58
2018-09-13T19:22:21.885Z,62.62
2018-09-13T19:24:50.697Z,62.83
2018-09-13T19:27:19.246Z,63.92
2018-09-13T19:29:47.902Z,63.74
2018-09-13T19:32:16.841Z,63.89
2018-09-13T19:34:45.565Z,65.18
2018-09-13T19:37:14.361Z,65.41
2018-09-13T19:39:43.526Z,65.02
2018-09-13T19:42:13.310Z,66.19
2018-09-13T19:44:41.846Z,65.98
2018-09-13T19:47:10.834Z,66.25
2018-09-13T19:49:39.506Z,66.60
2018-09-13T19:52:08.181Z,67.90
2018-09-13T19:54:37.182Z,67.00
2018-09-13T19:57:06.652Z,68.17
2018-09-13T19:59:35.317Z,68.63
2018-09-13T20:02:03.882Z,68.53
2018-09-13T20:04:32.485Z,69.37
2018-09-13T20:07:01.001Z,69.27
2018-09-13T20:09:29.789Z,70.03
2018-09-13T20:11:58.500Z,69.83
2018-09-13T20:14:27.044Z,70.41
2018-09-13T20:16:55.681Z,71.81
2018-09-13T20:19:24.182Z,71.24
2018-09-13T20:21:52.652Z,72.07
2018-09-13T20:24:21.990Z,72.01
2018-09-13T20:26:50.500Z,72.32
2018-09-13T20:29:19.978Z,72.46
2018-09-13T20:31:48.994Z,73.05
2018-09-13T20:34:17.477Z,73.49
2018-09-13T20:36:46.002Z,73.68
2018-09-13T20:39:14.553Z,74.06
2018-09-13T20:41:43.104Z,74.13
2018-09-13T20:44:11.611Z,74.17
2018-09-13T20:46:40.108Z,74.14
2018-09-13T20:49:08.997Z,74.05
2018-09-13T20:51:37.500Z,74.29
2018-09-13T20:54:06.369Z,74.79
2018-09-13T20:56:34.897Z,74.91
2018-09-13T20:59:03.465Z,75.59
2018-09-13T21:01:32.132Z,76.08
2018-09-13T21:04:01.633Z,75.85
2018-09-13T21:06:30.127Z,76.79
2018-09-13T21:08:58.613Z,77.21
2018-09-13T21:11:27.147Z,77.24
2018-09-13T21:13:58.216Z,77.74
2018-09-13T21:16:27.153Z,77.36
2018-09-13T21:18:55.660Z,78.52
2018-09-13T21:21:24.163Z,78.42
2018-09-13T21:23:52.775Z,78.21
2018-09-13T21:26:21.480Z,78.42
2018-09-13T21:28:50.079Z,78.38
2018-09-13T21:31:18.780Z,79.12
2018-09-13T21:33:47.735Z,80.06
2018-09-13T21:36:16.238Z,80.33
2018-09-13T21:38:44.732Z,80.04
2018-09-13T21:41:13.389Z,80.42
2018-09-13T21:43:41.956Z,80.76
2018-09-13T21:46:10.463Z,80.58
2018-09-13T21:48:39.004Z,81.35
2018-09-13T21:51:10.811Z,80.34
2018-09-13T21:53:39.601Z,80.48
2018-09-13T21:56:08.262Z,80.83
2018-09-13T21:58:36.767Z,80.97
2018-09-13T22:01:05.592Z,80.50
2018-09-13T22:03:34.345Z,81.58
2018-09-13T22:06:02.865Z,82.17
2018-09-13T22:08:31.386Z,82.50
2018-09-13T22:11:00.032Z,82.50
2018-09-13T22:13:33.447Z,82.61
2018-09-13T22:16:03.044Z,83.57
2018-09-13T22:18:32.074Z,83.43
2018-09-13T22:21:00.588Z,84.16
2018-09-13T22:23:29.167Z,83.53
2018-09-13T22:25:57.868Z,84.28
2018-09-13T22:28:26.426Z,84.45
2018-09-13T22:30:54.997Z,84.36
2018-09-13T22:33:24.096Z,84.54
2018-09-13T22:35:52.600Z,83.36
2018-09-13T22:38:22.469Z,84.16
2018-09-13T22:40:51.009Z,84.94
2018-09-13T22:43:19.851Z,84.54
2018-09-13T22:45:51.719Z,85.12
2018-09-13T22:48:20.216Z,85.14
2018-09-13T22:50:48.712Z,84.83
2018-09-13T22:53:20.736Z,84.95
2018-09-13T22:55:49.242Z,85.07
2018-09-13T22:58:17.734Z,85.88
2018-09-13T23:00:46.369Z,85.02
2018-09-13T23:03:15.159Z,85.56
2018-09-13T23:05:43.674Z,85.36
2018-09-13T23:08:12.225Z,85.53
2018-09-13T23:10:40.874Z,85.85
2018-09-13T23:13:09.449Z,85.31
2018-09-13T23:15:38.309Z,86.58
2018-09-13T23:18:06.802Z,86.83
2018-09-13T23:20:36.502Z,87.17
2018-09-13T23:23:05.058Z,86.55
2018-09-13T23:25:33.521Z,85.78
2018-09-13T23:28:02.037Z,86.18
2018-09-13T23:30:30.759Z,86.49
2018-09-13T23:32:59.261Z,86.42
2018-09-13T23:35:27.765Z,87.49
2018-09-13T23:37:56.246Z,87.52
2018-09-13T23:40:25.253Z,86.93
2018-09-13T23:42:53.689Z,86.96
2018-09-13T23:45:22.180Z,86.86
2018-09-13T23:47:50.732Z,87.08
2018-09-13T23:50:19.241Z,86.61
2018-09-13T23:52:48.011Z,86.81
2018-09-13T23:55:16.714Z,86.49
2018-09-13T23:57:45.363Z,86.86
